Time;durP1;ratioP1;P1;durP2;ratioP2;P2;SDS_P1;SDS_P2;PMS_P1;PMS_P2;Temp;Humidity;BMP_temperature;BMP_pressure;BME280_temperature;BME280_humidity;BME280_pressure;Samples;Min_cycle;Max_cycle;Signal;HPM_P1;HPM_P2
2022/08/18 00:03:40;;;;;;;23.77;18.23;;;;;;;;;;8349809;28;20110;-91
2022/08/18 00:07:43;;;;;;;21.13;16.17;;;;;;;;;;8359777;28;20504;-91
2022/08/18 00:11:45;;;;;;;24.70;19.88;;;;;;;;;;8360428;28;20044;-92
2022/08/18 00:15:48;;;;;;;21.17;17.92;;;;;;;;;;8361542;28;20057;-91
2022/08/18 00:19:52;;;;;;;25.10;18.02;;;;;;;;;;8360621;28;20500;-91
2022/08/18 00:23:55;;;;;;;25.13;19.67;;;;;;;;;;8362690;28;20052;-91
2022/08/18 00:27:57;;;;;;;26.27;19.45;;;;;;;;;;8356497;28;20404;-90
2022/08/18 00:32:00;;;;;;;22.80;17.13;;;;;;;;;;8355775;28;20120;-91
2022/08/18 00:36:04;;;;;;;24.02;18.08;;;;;;;;;;8355051;28;20044;-90
2022/08/18 00:40:10;;;;;;;20.42;16.33;;;;;;;;;;8352890;28;20049;-90
2022/08/18 00:44:15;;;;;;;18.05;14.85;;;;;;;;;;8341176;28;20048;-90
2022/08/18 00:48:27;;;;;;;18.50;16.23;;;;;;;;;;8352312;28;20053;-90
2022/08/18 00:52:36;;;;;;;23.30;16.27;;;;;;;;;;8361920;28;20114;-91
2022/08/18 00:56:44;;;;;;;23.77;17.20;;;;;;;;;;8365132;28;20045;-90
2022/08/18 01:00:49;;;;;;;19.65;17.15;;;;;;;;;;8365403;28;20049;-90
2022/08/18 01:04:57;;;;;;;21.90;17.13;;;;;;;;;;8366299;28;20098;-90
2022/08/18 01:09:02;;;;;;;19.58;15.75;;;;;;;;;;8365890;28;20049;-91
2022/08/18 01:13:04;;;;;;;20.58;17.38;;;;;;;;;;8366026;28;20431;-90
2022/08/18 01:26:01;;;;;;;20.13;14.02;;;;;;;;;;8361322;28;20049;-90
2022/08/18 01:30:08;;;;;;;17.65;15.13;;;;;;;;;;8365672;28;20048;-90
2022/08/18 01:34:11;;;;;;;19.98;16.20;;;;;;;;;;8365491;28;20056;-90
2022/08/18 01:38:14;;;;;;;22.00;16.23;;;;;;;;;;8365324;28;20037;-91
2022/08/18 01:42:18;;;;;;;18.45;15.15;;;;;;;;;;8365187;28;20064;-90
2022/08/18 01:46:22;;;;;;;21.10;17.08;;;;;;;;;;8364946;28;20053;-90
2022/08/18 01:50:24;;;;;;;24.17;18.38;;;;;;;;;;8365058;28;20511;-91
2022/08/18 01:54:28;;;;;;;23.85;16.80;;;;;;;;;;8361616;28;20049;-93
2022/08/18 01:58:33;;;;;;;21.08;15.95;;;;;;;;;;8351369;28;20116;-92
2022/08/18 02:02:36;;;;;;;22.00;16.45;;;;;;;;;;8353833;28;20068;-90
2022/08/18 02:06:46;;;;;;;21.00;15.45;;;;;;;;;;8355920;28;20044;-93
2022/08/18 02:10:53;;;;;;;21.55;17.17;;;;;;;;;;8361896;28;20610;-90
2022/08/18 02:14:57;;;;;;;21.42;15.90;;;;;;;;;;8363750;28;20099;-90
2022/08/18 02:19:00;;;;;;;23.92;17.35;;;;;;;;;;8365774;28;20481;-90
2022/08/18 02:23:03;;;;;;;21.42;15.43;;;;;;;;;;8363961;28;20049;-90
2022/08/18 02:27:06;;;;;;;18.88;15.95;;;;;;;;;;8363725;28;20041;-90
2022/08/18 02:31:13;;;;;;;24.15;16.60;;;;;;;;;;8363612;28;20037;-90
2022/08/18 02:35:16;;;;;;;21.73;16.80;;;;;;;;;;8357666;28;20561;-90
2022/08/18 02:39:18;;;;;;;20.95;16.65;;;;;;;;;;8359999;28;20103;-90
2022/08/18 02:43:21;;;;;;;23.33;17.67;;;;;;;;;;8363510;28;20124;-91
2022/08/18 02:47:25;;;;;;;21.92;17.08;;;;;;;;;;8363259;28;20069;-90
2022/08/18 02:51:28;;;;;;;20.83;17.20;;;;;;;;;;8363232;28;20051;-90
2022/08/18 02:55:31;;;;;;;24.98;17.25;;;;;;;;;;8363130;28;20511;-90
2022/08/18 02:59:33;;;;;;;20.55;16.55;;;;;;;;;;8362905;28;20132;-90
2022/08/18 03:03:37;;;;;;;20.35;15.95;;;;;;;;;;8362797;28;20056;-92
2022/08/18 03:07:40;;;;;;;21.50;16.65;;;;;;;;;;8362837;28;20049;-90
2022/08/18 03:11:43;;;;;;;20.50;16.42;;;;;;;;;;8362669;28;20407;-90
2022/08/18 03:15:45;;;;;;;20.15;16.23;;;;;;;;;;8362624;28;20070;-90
2022/08/18 03:19:49;;;;;;;24.50;17.88;;;;;;;;;;8362887;28;20056;-92
2022/08/18 03:23:54;;;;;;;22.77;18.38;;;;;;;;;;8362506;28;20048;-91
2022/08/18 03:27:57;;;;;;;25.73;18.08;;;;;;;;;;8362807;28;20071;-92
2022/08/18 03:32:00;;;;;;;26.50;18.48;;;;;;;;;;8362662;28;20052;-93
2022/08/18 03:36:07;;;;;;;23.73;18.52;;;;;;;;;;8362152;28;20041;-92
2022/08/18 03:40:10;;;;;;;26.88;19.00;;;;;;;;;;8353794;28;20033;-92
2022/08/18 03:44:14;;;;;;;27.00;20.35;;;;;;;;;;8362397;28;20045;-92
2022/08/18 03:48:17;;;;;;;22.30;17.42;;;;;;;;;;8361933;28;20076;-92
2022/08/18 03:52:22;;;;;;;31.02;23.92;;;;;;;;;;8361467;28;20051;-91
2022/08/18 03:56:27;;;;;;;25.30;19.70;;;;;;;;;;8360440;28;20037;-91
2022/08/18 04:00:30;;;;;;;24.98;18.13;;;;;;;;;;8365775;28;20492;-91
2022/08/18 04:04:33;;;;;;;26.73;19.42;;;;;;;;;;8368247;28;20091;-91
2022/08/18 04:08:40;;;;;;;27.80;19.90;;;;;;;;;;8368139;28;20056;-92
2022/08/18 04:12:43;;;;;;;28.40;20.88;;;;;;;;;;8362426;28;20136;-92
2022/08/18 04:16:46;;;;;;;27.45;20.52;;;;;;;;;;8355179;28;20041;-92
2022/08/18 04:20:49;;;;;;;28.70;20.27;;;;;;;;;;8353413;28;20516;-92
2022/08/18 04:24:54;;;;;;;28.30;20.73;;;;;;;;;;8363942;28;20041;-91
2022/08/18 04:28:59;;;;;;;33.85;22.60;;;;;;;;;;8356004;28;20091;-92
2022/08/18 04:33:05;;;;;;;26.38;21.20;;;;;;;;;;8364166;28;20041;-92
2022/08/18 04:37:08;;;;;;;28.58;22.35;;;;;;;;;;8363795;28;20095;-92
2022/08/18 04:41:13;;;;;;;31.80;22.08;;;;;;;;;;8355070;28;20044;-92
2022/08/18 04:45:16;;;;;;;29.60;21.50;;;;;;;;;;8352284;28;20060;-92
2022/08/18 04:49:20;;;;;;;28.02;22.17;;;;;;;;;;8360172;28;20048;-91
2022/08/18 04:57:44;;;;;;;27.83;20.38;;;;;;;;;;8364880;28;20552;-90
2022/08/18 05:01:49;;;;;;;29.77;22.35;;;;;;;;;;8358958;28;20056;-93
2022/08/18 05:05:52;;;;;;;25.92;21.02;;;;;;;;;;8351537;28;20100;-92
2022/08/18 05:09:55;;;;;;;27.23;21.38;;;;;;;;;;8365810;28;20048;-92
2022/08/18 05:14:00;;;;;;;39.10;25.30;;;;;;;;;;8359031;28;20037;-92
2022/08/18 05:18:04;;;;;;;44.33;27.77;;;;;;;;;;8365972;28;20091;-92
2022/08/18 05:22:06;;;;;;;38.58;22.90;;;;;;;;;;8359724;28;20045;-91
2022/08/18 05:26:10;;;;;;;29.70;21.20;;;;;;;;;;8366862;28;20036;-90
2022/08/18 05:30:16;;;;;;;39.35;23.08;;;;;;;;;;8353514;28;20037;-91
2022/08/18 05:34:22;;;;;;;36.67;23.33;;;;;;;;;;8355191;28;20037;-91
2022/08/18 05:38:38;;;;;;;32.80;21.17;;;;;;;;;;8346241;28;20549;-90
2022/08/18 05:42:58;;;;;;;36.50;20.13;;;;;;;;;;8358466;28;20048;-90
2022/08/18 05:47:17;;;;;;;;;;;;;;;;;;8355149;28;20154;-90
2022/08/18 05:51:38;;;;;;;56.35;21.02;;;;;;;;;;8364630;28;20338;-90
2022/08/18 06:00:23;;;;;;;26.88;15.75;;;;;;;;;;8357032;28;20072;-90
2022/08/18 06:04:40;;;;;;;22.98;14.85;;;;;;;;;;8360733;28;20484;-92
2022/08/18 06:08:47;;;;;;;26.13;14.52;;;;;;;;;;8364142;28;20041;-91
2022/08/18 06:12:53;;;;;;;31.92;14.77;;;;;;;;;;8363786;28;20044;-91
2022/08/18 06:17:07;;;;;;;29.27;14.35;;;;;;;;;;8358502;28;20049;-90
2022/08/18 06:21:38;;;;;;;29.08;15.00;;;;;;;;;;8362827;28;20041;-89
2022/08/18 06:25:55;;;;;;;24.67;12.45;;;;;;;;;;8356048;28;20503;-90
2022/08/18 06:30:06;;;;;;;17.95;11.00;;;;;;;;;;8361491;28;20048;-90
2022/08/18 06:34:19;;;;;;;21.75;13.48;;;;;;;;;;8363336;28;20048;-90
2022/08/18 06:38:46;;;;;;;21.23;10.75;;;;;;;;;;8363164;28;20045;-90
2022/08/18 06:42:49;;;;;;;19.40;11.60;;;;;;;;;;8363440;28;20055;-91
2022/08/18 06:46:56;;;;;;;20.27;11.50;;;;;;;;;;8362955;28;20052;-90
2022/08/18 06:51:01;;;;;;;22.08;12.18;;;;;;;;;;8362751;28;20390;-90
2022/08/18 06:55:10;;;;;;;18.60;10.70;;;;;;;;;;8348293;28;20098;-91
2022/08/18 06:59:21;;;;;;;17.10;11.05;;;;;;;;;;8354134;28;20064;-91
2022/08/18 07:03:40;;;;;;;15.93;10.07;;;;;;;;;;8354707;28;20057;-91
2022/08/18 07:07:43;;;;;;;18.92;10.73;;;;;;;;;;8356269;28;20060;-90
2022/08/18 07:12:03;;;;;;;19.65;9.90;;;;;;;;;;8357198;28;20040;-90
2022/08/18 07:16:17;;;;;;;22.58;10.10;;;;;;;;;;8357733;28;20389;-90
2022/08/18 07:20:24;;;;;;;17.75;10.15;;;;;;;;;;8353963;28;20041;-91
2022/08/18 07:24:30;;;;;;;14.13;9.02;;;;;;;;;;8360883;28;20048;-90
2022/08/18 07:28:38;;;;;;;14.73;8.80;;;;;;;;;;8348484;28;20049;-91
2022/08/18 07:32:54;;;;;;;16.65;9.85;;;;;;;;;;8359001;28;20041;-91
2022/08/18 07:37:04;;;;;;;15.95;8.88;;;;;;;;;;8347577;28;20147;-91
2022/08/18 07:41:14;;;;;;;11.68;8.32;;;;;;;;;;8363857;28;20045;-90
2022/08/18 07:45:25;;;;;;;12.60;8.17;;;;;;;;;;8370162;28;20049;-90
2022/08/18 07:49:33;;;;;;;29.15;16.50;;;;;;;;;;8364984;28;20834;-90
2022/08/18 07:53:47;;;;;;;17.00;9.73;;;;;;;;;;8364173;28;20151;-90
2022/08/18 07:58:00;;;;;;;10.75;8.20;;;;;;;;;;8362991;28;20430;-90
2022/08/18 08:02:21;;;;;;;13.73;8.63;;;;;;;;;;8353904;28;20080;-91
2022/08/18 08:06:29;;;;;;;11.20;8.18;;;;;;;;;;8359955;28;20132;-91
2022/08/18 08:10:40;;;;;;;15.73;10.90;;;;;;;;;;8365182;28;20045;-92
2022/08/18 08:14:45;;;;;;;19.52;12.55;;;;;;;;;;8369682;28;20091;-90
2022/08/18 08:19:03;;;;;;;24.92;11.65;;;;;;;;;;8363531;28;20522;-90
2022/08/18 08:23:18;;;;;;;9.55;7.20;;;;;;;;;;8358736;28;20049;-93
2022/08/18 08:27:31;;;;;;;13.13;7.45;;;;;;;;;;8357564;28;20417;-90
2022/08/18 08:31:44;;;;;;;9.93;7.80;;;;;;;;;;8357066;28;20115;-91
2022/08/18 08:35:56;;;;;;;12.10;7.40;;;;;;;;;;8361923;28;20055;-90
2022/08/18 08:40:03;;;;;;;15.20;10.75;;;;;;;;;;8352270;28;20052;-91
2022/08/18 08:44:25;;;;;;;12.60;7.78;;;;;;;;;;8348432;28;20052;-91
2022/08/18 08:48:41;;;;;;;11.25;7.88;;;;;;;;;;8352883;28;20048;-91
2022/08/18 08:53:00;;;;;;;10.40;7.05;;;;;;;;;;8340732;28;20606;-90
2022/08/18 08:57:04;;;;;;;11.02;7.80;;;;;;;;;;8348199;28;20073;-90
2022/08/18 09:01:24;;;;;;;12.40;8.07;;;;;;;;;;8360042;28;20048;-92
2022/08/18 09:05:28;;;;;;;;;;;;;;;;;;8368781;28;20041;-92
2022/08/18 09:09:58;;;;;;;11.30;6.95;;;;;;;;;;8355683;28;19975;-90
2022/08/18 09:14:14;;;;;;;;;;;;;;;;;;8345634;28;20098;-89
2022/08/18 09:18:34;;;;;;;12.02;7.85;;;;;;;;;;8356187;28;20376;-91
2022/08/18 09:22:48;;;;;;;12.05;7.70;;;;;;;;;;8341847;28;20637;-91
2022/08/18 09:27:12;;;;;;;11.07;7.40;;;;;;;;;;8347377;28;20078;-91
2022/08/18 09:31:18;;;;;;;9.48;6.90;;;;;;;;;;8352042;28;20424;-89
2022/08/18 09:35:57;;;;;;;10.50;7.25;;;;;;;;;;8340813;28;20049;-89
2022/08/18 09:45:01;;;;;;;10.05;7.47;;;;;;;;;;8343080;28;20048;-91
2022/08/18 09:49:46;;;;;;;9.93;7.07;;;;;;;;;;8347772;28;20405;-90
2022/08/18 09:54:17;;;;;;;9.95;7.60;;;;;;;;;;8311727;28;20080;-88
2022/08/18 09:58:21;;;;;;;9.95;7.57;;;;;;;;;;8334724;28;20046;-87
2022/08/18 10:03:00;;;;;;;10.55;7.53;;;;;;;;;;8356606;28;20144;-88
2022/08/18 10:07:20;;;;;;;11.15;7.25;;;;;;;;;;8345769;28;20106;-92
2022/08/18 10:11:41;;;;;;;10.30;7.70;;;;;;;;;;8360090;28;20037;-90
2022/08/18 10:15:58;;;;;;;11.55;6.95;;;;;;;;;;8344488;28;20079;-89
2022/08/18 10:20:17;;;;;;;10.90;7.00;;;;;;;;;;8336065;28;20057;-90
2022/08/18 10:24:22;;;;;;;10.95;7.00;;;;;;;;;;8353535;28;20048;-89
2022/08/18 10:28:53;;;;;;;8.02;7.13;;;;;;;;;;8341002;28;20050;-90
2022/08/18 10:32:56;;;;;;;9.65;7.07;;;;;;;;;;8355244;28;20680;-91
2022/08/18 10:37:01;;;;;;;14.32;7.47;;;;;;;;;;8340041;28;20472;-88
2022/08/18 10:41:11;;;;;;;10.48;7.28;;;;;;;;;;8335968;28;20473;-90
2022/08/18 10:45:20;;;;;;;28.13;17.58;;;;;;;;;;8334692;28;20038;-90
2022/08/18 10:49:26;;;;;;;14.38;8.30;;;;;;;;;;8348155;28;20120;-88
2022/08/18 10:53:35;;;;;;;11.25;7.13;;;;;;;;;;8352193;28;20099;-89
2022/08/18 10:58:06;;;;;;;13.10;7.70;;;;;;;;;;8351447;28;20176;-91
2022/08/18 11:02:23;;;;;;;16.48;8.20;;;;;;;;;;8355663;28;20413;-90
2022/08/18 11:06:26;;;;;;;8.32;6.43;;;;;;;;;;8354894;28;20049;-92
2022/08/18 11:16:03;;;;;;;8.07;6.82;;;;;;;;;;8348917;28;20404;-90
2022/08/18 11:20:09;;;;;;;9.57;6.50;;;;;;;;;;8347629;28;20563;-90
2022/08/18 11:24:16;;;;;;;10.15;6.82;;;;;;;;;;8361715;23;20087;-90
2022/08/18 11:28:22;;;;;;;10.65;6.82;;;;;;;;;;8390245;28;20119;-90
2022/08/18 11:32:33;;;;;;;13.27;6.90;;;;;;;;;;8374261;28;20044;-90
2022/08/18 11:36:36;;;;;;;12.18;6.47;;;;;;;;;;8385967;28;20045;-92
2022/08/18 11:40:43;;;;;;;10.82;6.75;;;;;;;;;;8390277;28;20108;-90
2022/08/18 11:44:46;;;;;;;14.10;8.25;;;;;;;;;;8384868;28;20446;-91
2022/08/18 11:48:51;;;;;;;9.00;6.45;;;;;;;;;;8389760;28;20106;-90
2022/08/18 11:52:55;;;;;;;10.60;6.50;;;;;;;;;;8386418;28;20556;-90
2022/08/18 11:57:31;;;;;;;10.85;6.57;;;;;;;;;;8382006;28;20055;-89
2022/08/18 12:01:43;;;;;;;9.88;6.30;;;;;;;;;;8377299;28;20044;-90
2022/08/18 12:05:52;;;;;;;13.70;6.55;;;;;;;;;;8385063;28;20067;-92
2022/08/18 12:10:18;;;;;;;8.90;6.32;;;;;;;;;;8388376;28;20495;-91
2022/08/18 12:14:27;;;;;;;8.73;6.72;;;;;;;;;;8391085;28;20040;-90
2022/08/18 12:18:30;;;;;;;7.93;6.25;;;;;;;;;;8390890;28;20488;-87
2022/08/18 12:22:36;;;;;;;10.48;6.07;;;;;;;;;;8382823;28;20123;-91
2022/08/18 12:26:40;;;;;;;9.32;6.32;;;;;;;;;;8381309;28;20550;-91
2022/08/18 12:30:59;;;;;;;9.07;6.40;;;;;;;;;;8388106;28;20048;-94
2022/08/18 12:35:01;;;;;;;7.72;5.60;;;;;;;;;;8632492;22;20050;-95
2022/08/18 12:39:12;;;;;;;8.70;6.20;;;;;;;;;;8321258;28;20050;-89
2022/08/18 12:43:17;;;;;;;10.57;6.07;;;;;;;;;;8320040;28;20046;-90
2022/08/18 12:47:22;;;;;;;9.52;6.22;;;;;;;;;;8331392;28;20045;-91
2022/08/18 12:51:25;;;;;;;7.97;5.78;;;;;;;;;;8329668;28;20097;-89
2022/08/18 12:55:34;;;;;;;14.70;6.70;;;;;;;;;;8321933;28;20049;-91
2022/08/18 13:00:06;;;;;;;8.23;5.85;;;;;;;;;;8455199;22;20061;-89
2022/08/18 13:04:09;;;;;;;10.57;6.40;;;;;;;;;;8357380;28;20041;-89
2022/08/18 13:08:19;;;;;;;8.43;6.53;;;;;;;;;;8360242;28;20056;-89
2022/08/18 13:12:24;;;;;;;9.48;5.88;;;;;;;;;;8354596;28;20295;-92
2022/08/18 13:16:27;;;;;;;8.98;5.93;;;;;;;;;;8379853;28;20481;-92
2022/08/18 13:20:30;;;;;;;8.82;6.05;;;;;;;;;;8384884;28;20112;-90
2022/08/18 13:24:33;;;;;;;7.97;5.82;;;;;;;;;;8385966;28;20056;-90
2022/08/18 13:28:37;;;;;;;8.73;5.97;;;;;;;;;;8374411;28;20053;-90
2022/08/18 13:32:40;;;;;;;8.95;5.43;;;;;;;;;;8360310;28;20455;-92
2022/08/18 13:36:46;;;;;;;8.55;5.30;;;;;;;;;;8356176;28;20053;-90
2022/08/18 13:40:50;;;;;;;12.65;6.07;;;;;;;;;;8352869;28;20435;-89
2022/08/18 13:44:55;;;;;;;8.02;5.95;;;;;;;;;;8357753;28;20040;-91
2022/08/18 13:49:01;;;;;;;9.20;5.70;;;;;;;;;;8346843;28;20435;-90
2022/08/18 13:53:04;;;;;;;10.27;6.22;;;;;;;;;;8352888;28;20802;-90
2022/08/18 13:57:07;;;;;;;9.05;6.50;;;;;;;;;;8355920;28;20059;-88
2022/08/18 14:01:12;;;;;;;9.32;6.60;;;;;;;;;;8357229;28;20057;-90
2022/08/18 14:05:16;;;;;;;9.00;6.50;;;;;;;;;;8357540;28;20052;-90
2022/08/18 14:09:19;;;;;;;11.98;6.00;;;;;;;;;;8356241;28;20045;-93
2022/08/18 14:13:23;;;;;;;9.10;5.82;;;;;;;;;;8357059;28;20068;-91
2022/08/18 14:17:27;;;;;;;7.57;5.85;;;;;;;;;;8356408;28;20438;-90
2022/08/18 14:30:18;;;;;;;8.15;5.72;;;;;;;;;;8355008;28;20044;-90
2022/08/18 14:34:22;;;;;;;11.27;7.80;;;;;;;;;;8356315;28;20044;-90
2022/08/18 14:38:24;;;;;;;8.20;5.97;;;;;;;;;;8352002;28;20049;-90
2022/08/18 14:42:28;;;;;;;8.40;5.53;;;;;;;;;;8348284;28;20162;-89
2022/08/18 14:46:30;;;;;;;9.80;5.90;;;;;;;;;;8352595;28;20550;-89
2022/08/18 14:50:35;;;;;;;9.07;6.03;;;;;;;;;;8348834;28;20053;-90
2022/08/18 14:54:38;;;;;;;10.77;6.60;;;;;;;;;;8351497;28;20049;-89
2022/08/18 14:58:41;;;;;;;10.75;7.50;;;;;;;;;;8355046;28;20064;-89
2022/08/18 15:02:44;;;;;;;10.73;7.43;;;;;;;;;;8351662;28;20131;-89
2022/08/18 15:06:49;;;;;;;13.02;7.13;;;;;;;;;;8349260;28;20396;-90
2022/08/18 15:10:51;;;;;;;11.73;7.38;;;;;;;;;;8353525;28;20132;-90
2022/08/18 15:14:54;;;;;;;11.57;6.50;;;;;;;;;;8354716;28;20037;-90
2022/08/18 15:18:56;;;;;;;11.40;6.78;;;;;;;;;;8346710;28;20518;-90
2022/08/18 15:27:23;;;;;;;9.27;6.00;;;;;;;;;;8353415;28;20037;-90
2022/08/18 15:31:26;;;;;;;10.15;6.85;;;;;;;;;;8353661;28;20059;-89
2022/08/18 15:35:28;;;;;;;7.60;5.95;;;;;;;;;;8356873;28;20467;-90
2022/08/18 15:39:32;;;;;;;9.85;6.82;;;;;;;;;;8343023;28;20045;-89
2022/08/18 15:43:36;;;;;;;10.10;6.75;;;;;;;;;;8345885;28;20079;-89
2022/08/18 15:47:40;;;;;;;9.98;6.72;;;;;;;;;;8354800;28;20060;-89
2022/08/18 15:51:45;;;;;;;8.75;6.30;;;;;;;;;;8356219;28;20511;-91
2022/08/18 15:55:53;;;;;;;10.15;6.85;;;;;;;;;;8362151;28;20052;-88
2022/08/18 15:59:55;;;;;;;9.48;6.32;;;;;;;;;;8357711;28;20683;-90
2022/08/18 16:03:58;;;;;;;9.18;6.40;;;;;;;;;;8363524;28;20049;-89
2022/08/18 16:08:01;;;;;;;10.10;6.38;;;;;;;;;;8363632;28;20548;-88
2022/08/18 16:12:08;;;;;;;11.45;7.32;;;;;;;;;;8362691;28;20138;-88
2022/08/18 16:16:17;;;;;;;10.43;6.43;;;;;;;;;;8360188;28;20190;-89
2022/08/18 16:20:22;;;;;;;9.52;6.05;;;;;;;;;;8352692;28;20042;-88
2022/08/18 16:24:25;;;;;;;8.13;6.30;;;;;;;;;;8356083;28;20103;-89
2022/08/18 16:28:30;;;;;;;7.70;5.95;;;;;;;;;;8361180;28;20102;-89
2022/08/18 16:32:32;;;;;;;10.10;6.88;;;;;;;;;;8358226;28;20087;-90
2022/08/18 16:36:35;;;;;;;9.45;6.47;;;;;;;;;;8360236;28;20123;-90
2022/08/18 16:40:39;;;;;;;7.65;6.20;;;;;;;;;;8352845;28;20110;-90
2022/08/18 16:44:44;;;;;;;8.48;6.28;;;;;;;;;;8354847;28;20049;-92
2022/08/18 16:48:46;;;;;;;7.68;6.13;;;;;;;;;;8358012;28;20087;-88
2022/08/18 16:52:49;;;;;;;9.27;6.20;;;;;;;;;;8353069;28;20048;-91
2022/08/18 16:56:51;;;;;;;8.60;6.45;;;;;;;;;;8358914;28;20051;-92
2022/08/18 17:05:28;;;;;;;21.15;13.38;;;;;;;;;;8275584;28;20463;-92
2022/08/18 17:09:31;;;;;;;20.80;11.82;;;;;;;;;;8354294;28;20044;-91
2022/08/18 17:13:34;;;;;;;9.80;7.50;;;;;;;;;;8360410;28;20052;-90
2022/08/18 17:17:38;;;;;;;10.95;7.60;;;;;;;;;;8351074;28;20053;-89
2022/08/18 17:21:40;;;;;;;13.10;9.82;;;;;;;;;;8355126;28;20052;-89
2022/08/18 17:25:44;;;;;;;20.05;14.43;;;;;;;;;;8359173;28;20435;-90
2022/08/18 17:29:51;;;;;;;13.98;8.80;;;;;;;;;;8350313;28;20134;-91
2022/08/18 17:34:01;;;;;;;12.50;7.30;;;;;;;;;;8356482;28;20100;-90
2022/08/18 17:38:08;;;;;;;9.23;7.00;;;;;;;;;;8351804;28;20480;-90
2022/08/18 17:42:26;;;;;;;12.77;7.47;;;;;;;;;;8357866;28;20048;-88
2022/08/18 17:46:31;;;;;;;12.25;8.93;;;;;;;;;;8358015;28;20571;-89
2022/08/18 17:55:07;;;;;;;13.60;8.60;;;;;;;;;;8359865;28;20056;-89
2022/08/18 17:59:13;;;;;;;13.27;7.90;;;;;;;;;;8350567;28;20064;-89
2022/08/18 18:03:16;;;;;;;10.90;8.10;;;;;;;;;;8356561;28;20471;-88
2022/08/18 18:07:27;;;;;;;15.48;8.30;;;;;;;;;;8357103;28;20048;-88
2022/08/18 18:11:32;;;;;;;9.32;7.55;;;;;;;;;;8363204;28;20476;-90
2022/08/18 18:15:38;;;;;;;11.20;8.38;;;;;;;;;;8357296;28;20049;-90
2022/08/18 18:19:42;;;;;;;16.58;8.68;;;;;;;;;;8347992;28;20409;-92
2022/08/18 18:23:49;;;;;;;21.88;10.73;;;;;;;;;;8354579;28;20385;-89
2022/08/18 18:27:52;;;;;;;18.10;10.07;;;;;;;;;;8357921;28;20053;-89
2022/08/18 18:32:02;;;;;;;11.90;7.97;;;;;;;;;;8341310;28;20048;-92
2022/08/18 18:36:11;;;;;;;16.35;9.15;;;;;;;;;;8363261;28;20041;-90
2022/08/18 18:40:30;;;;;;;13.77;9.82;;;;;;;;;;8363055;28;20412;-90
2022/08/18 18:44:32;;;;;;;14.13;9.00;;;;;;;;;;8363238;28;20068;-90
2022/08/18 18:48:47;;;;;;;11.57;8.65;;;;;;;;;;8362996;28;20045;-90
2022/08/18 18:53:01;;;;;;;12.13;9.02;;;;;;;;;;8362904;28;20155;-90
2022/08/18 18:57:09;;;;;;;14.43;9.43;;;;;;;;;;8362917;28;20051;-90
2022/08/18 19:01:23;;;;;;;12.35;8.68;;;;;;;;;;8362525;28;20053;-89
2022/08/18 19:05:34;;;;;;;11.18;8.40;;;;;;;;;;8359294;28;20102;-89
2022/08/18 19:09:43;;;;;;;12.75;9.73;;;;;;;;;;8360869;28;20131;-90
2022/08/18 19:13:54;;;;;;;11.18;9.02;;;;;;;;;;8356856;28;20131;-89
2022/08/18 19:18:01;;;;;;;12.32;9.55;;;;;;;;;;8359215;28;20455;-90
2022/08/18 19:22:09;;;;;;;13.38;9.43;;;;;;;;;;8362517;28;20048;-90
2022/08/18 19:26:16;;;;;;;13.00;9.55;;;;;;;;;;8360378;28;20087;-91
2022/08/18 19:30:21;;;;;;;13.70;9.02;;;;;;;;;;8362062;28;20052;-89
2022/08/18 19:34:28;;;;;;;13.30;9.32;;;;;;;;;;8362120;28;20037;-90
2022/08/18 19:38:35;;;;;;;13.27;9.40;;;;;;;;;;8362157;28;20041;-89
2022/08/18 19:42:43;;;;;;;17.23;10.60;;;;;;;;;;8361939;28;20060;-89
2022/08/18 19:46:51;;;;;;;16.98;11.10;;;;;;;;;;8362035;28;20060;-89
2022/08/18 19:51:03;;;;;;;15.77;10.48;;;;;;;;;;8361879;28;20404;-89
2022/08/18 19:55:18;;;;;;;15.38;10.65;;;;;;;;;;8362227;28;20037;-89
2022/08/18 19:59:35;;;;;;;14.15;10.10;;;;;;;;;;8361634;28;20522;-89
2022/08/18 20:04:01;;;;;;;15.15;10.57;;;;;;;;;;8361598;28;20049;-89
2022/08/18 20:08:36;;;;;;;12.77;10.18;;;;;;;;;;8357568;28;20049;-89
2022/08/18 20:12:58;;;;;;;16.45;12.00;;;;;;;;;;8320404;28;20142;-90
2022/08/18 20:17:15;;;;;;;20.67;13.73;;;;;;;;;;8361338;28;20091;-90
2022/08/18 20:21:45;;;;;;;16.15;12.35;;;;;;;;;;8361351;28;20072;-89
2022/08/18 20:25:48;;;;;;;14.20;11.23;;;;;;;;;;8352220;28;20140;-91
2022/08/18 20:30:23;;;;;;;16.95;10.90;;;;;;;;;;8354831;28;20045;-90
2022/08/18 20:34:29;;;;;;;16.92;12.38;;;;;;;;;;8360936;28;20061;-89
2022/08/18 20:38:35;;;;;;;26.25;16.45;;;;;;;;;;8361047;28;20045;-90
2022/08/18 20:42:47;;;;;;;17.80;12.40;;;;;;;;;;8364798;28;20045;-90
2022/08/18 20:47:04;;;;;;;16.88;10.73;;;;;;;;;;8366744;28;20091;-90
2022/08/18 20:51:11;;;;;;;13.52;10.77;;;;;;;;;;8366723;28;20045;-91
2022/08/18 20:55:25;;;;;;;15.05;11.07;;;;;;;;;;8360065;28;20048;-89
2022/08/18 20:59:32;;;;;;;16.95;11.20;;;;;;;;;;8356774;28;20064;-90
2022/08/18 21:03:36;;;;;;;17.85;11.18;;;;;;;;;;8333596;28;20041;-89
2022/08/18 21:07:57;;;;;;;15.32;11.30;;;;;;;;;;8333275;28;20065;-90
2022/08/18 21:12:01;;;;;;;14.80;10.60;;;;;;;;;;8333110;28;20037;-90
2022/08/18 21:16:04;;;;;;;13.48;10.70;;;;;;;;;;8333024;28;20312;-90
2022/08/18 21:20:13;;;;;;;14.77;10.43;;;;;;;;;;8332774;28;20057;-89
2022/08/18 21:24:22;;;;;;;20.60;12.48;;;;;;;;;;8332500;28;20088;-89
2022/08/18 21:28:31;;;;;;;15.93;10.60;;;;;;;;;;8332688;28;20489;-89
2022/08/18 21:32:36;;;;;;;15.50;10.05;;;;;;;;;;8332399;28;20049;-90
2022/08/18 21:36:51;;;;;;;14.93;10.50;;;;;;;;;;8332184;28;20050;-89
2022/08/18 21:40:58;;;;;;;14.02;10.43;;;;;;;;;;8331811;28;20049;-90
2022/08/18 21:45:02;;;;;;;16.40;11.88;;;;;;;;;;8330791;28;20045;-90
2022/08/18 21:49:05;;;;;;;14.43;10.52;;;;;;;;;;8329155;28;20050;-89
2022/08/18 21:53:18;;;;;;;16.17;12.23;;;;;;;;;;8324434;28;20128;-89
2022/08/18 21:57:24;;;;;;;14.88;11.02;;;;;;;;;;8330293;28;20060;-89
2022/08/18 22:01:28;;;;;;;16.50;11.40;;;;;;;;;;8330761;28;20539;-90
2022/08/18 22:05:33;;;;;;;15.43;11.27;;;;;;;;;;8330083;28;20069;-90
2022/08/18 22:14:29;;;;;;;17.23;11.88;;;;;;;;;;8325955;28;20034;-91
2022/08/18 22:18:38;;;;;;;15.95;11.88;;;;;;;;;;8327040;28;20057;-91
2022/08/18 22:27:11;;;;;;;16.48;10.95;;;;;;;;;;8327200;28;20470;-90
2022/08/18 22:31:13;;;;;;;16.60;11.02;;;;;;;;;;8326387;28;20042;-90
2022/08/18 22:35:16;;;;;;;16.20;11.35;;;;;;;;;;8323926;28;20540;-89
2022/08/18 22:39:23;;;;;;;16.50;11.10;;;;;;;;;;8330420;28;20112;-90
2022/08/18 22:43:30;;;;;;;16.55;10.90;;;;;;;;;;8329399;28;20037;-90
2022/08/18 22:47:33;;;;;;;17.17;11.48;;;;;;;;;;8329487;28;20052;-91
2022/08/18 22:51:36;;;;;;;16.67;11.10;;;;;;;;;;8323952;28;20551;-89
2022/08/18 22:55:38;;;;;;;13.43;10.43;;;;;;;;;;8321938;28;20049;-91
2022/08/18 22:59:42;;;;;;;16.85;12.57;;;;;;;;;;8322931;28;20520;-90
2022/08/18 23:03:45;;;;;;;16.70;12.25;;;;;;;;;;8324050;28;20137;-89
2022/08/18 23:07:48;;;;;;;15.50;11.00;;;;;;;;;;8327603;28;20045;-90
2022/08/18 23:11:51;;;;;;;16.80;11.45;;;;;;;;;;8328601;28;20041;-89
2022/08/18 23:15:56;;;;;;;15.68;11.63;;;;;;;;;;8325932;28;20042;-89
2022/08/18 23:19:59;;;;;;;20.90;12.80;;;;;;;;;;8322861;28;20528;-89
2022/08/18 23:24:02;;;;;;;16.80;11.98;;;;;;;;;;8328936;28;20041;-89
2022/08/18 23:28:08;;;;;;;19.65;12.15;;;;;;;;;;8328987;28;20466;-88
2022/08/18 23:32:13;;;;;;;17.55;12.18;;;;;;;;;;8328920;28;20050;-89
2022/08/18 23:36:16;;;;;;;19.88;12.85;;;;;;;;;;8328689;28;20045;-90
2022/08/18 23:40:19;;;;;;;20.77;12.15;;;;;;;;;;8328998;28;20054;-89
2022/08/18 23:44:22;;;;;;;15.80;12.73;;;;;;;;;;8328759;28;20050;-89
2022/08/18 23:48:27;;;;;;;18.73;12.77;;;;;;;;;;8327427;28;20042;-89
2022/08/18 23:52:30;;;;;;;16.63;11.80;;;;;;;;;;8327429;28;20045;-89
2022/08/18 23:56:34;;;;;;;17.92;12.73;;;;;;;;;;8326995;28;20485;-89
